Time,TemperatureF,DewpointF,PressureIn,WindDirection,WindDirectionDegrees,WindSpeedMPH,WindSpeedGustMPH,Humidity,HourlyPrecipIn,Conditions,Clouds,dailyrainin,SoftwareType,DateUTC
2013-02-06 00:00:00,-7.4,-11.2,29.03,NW,315,1.1,0.0,83,0.00,CLR,,0.00,WeatherDisplay:10.37,2013-02-06 06:00:00,
2013-02-06 00:05:00,-7.4,-11.2,29.03,NW,315,1.1,0.0,83,0.00,CLR,,0.00,WeatherDisplay:10.37,2013-02-06 06:05:00,
2013-02-06 00:10:00,-7.1,-10.9,29.03,NW,315,1.1,0.0,83,0.00,CLR,,0.00,WeatherDisplay:10.37,2013-02-06 06:10:00,
2013-02-06 00:15:00,-7.2,-11.3,29.03,NW,315,0.0,0.0,82,0.00,CLR,,0.00,WeatherDisplay:10.37,2013-02-06 06:15:00,
2013-02-06 00:20:00,-7.6,-11.6,29.03,SE,135,1.1,1.1,82,0.00,CLR,,0.00,WeatherDisplay:10.37,2013-02-06 06:20:00,
2013-02-06 00:25:00,-7.6,-11.6,29.03,SE,135,1.6,1.6,82,0.00,CLR,,0.00,WeatherDisplay:10.37,2013-02-06 06:25:00,
2013-02-06 00:30:00,-7.6,-11.6,29.03,SE,135,1.1,0.0,82,0.00,CLR,,0.00,WeatherDisplay:10.37,2013-02-06 06:30:00,
2013-02-06 00:35:00,-7.6,-11.6,29.03,SE,135,2.3,2.3,82,0.00,CLR,,0.00,WeatherDisplay:10.37,2013-02-06 06:35:00,
2013-02-06 00:40:00,-7.6,-11.6,29.03,SE,135,0.0,0.0,82,0.00,CLR,,0.00,WeatherDisplay:10.37,2013-02-06 06:40:00,
2013-02-06 00:45:00,-8.0,-12.0,29.03,SE,135,1.1,0.0,82,0.00,CLR,,0.00,WeatherDisplay:10.37,2013-02-06 06:45:00,
2013-02-06 00:50:00,-8.1,-12.2,29.03,North,0,1.1,1.1,82,0.00,CLR,,0.00,WeatherDisplay:10.37,2013-02-06 06:50:00,
2013-02-06 00:55:00,-8.3,-12.3,29.03,NW,315,1.1,1.1,82,0.00,CLR,,0.00,WeatherDisplay:10.37,2013-02-06 06:55:00,
2013-02-06 01:00:00,-8.5,-12.5,29.04,NW,315,1.1,1.1,82,0.00,CLR,,0.00,WeatherDisplay:10.37,2013-02-06 07:00:00,
2013-02-06 01:05:00,-8.5,-12.5,29.04,NW,315,1.1,1.1,82,0.00,CLR,,0.00,WeatherDisplay:10.37,2013-02-06 07:05:00,
2013-02-06 01:10:00,-8.1,-12.2,29.05,South,180,1.1,1.1,82,0.00,CLR,,0.00,WeatherDisplay:10.37,2013-02-06 07:10:00,
2013-02-06 01:15:00,-8.0,-12.0,29.05,South,180,1.1,0.0,82,0.00,CLR,,0.00,WeatherDisplay:10.37,2013-02-06 07:15:00,
2013-02-06 01:20:00,-8.3,-12.3,29.04,South,180,0.0,0.0,82,0.00,CLR,,0.00,WeatherDisplay:10.37,2013-02-06 07:20:00,
2013-02-06 01:25:00,-8.5,-12.5,29.04,South,180,0.0,0.0,82,0.00,CLR,,0.00,WeatherDisplay:10.37,2013-02-06 07:25:00,
2013-02-06 01:30:00,-8.7,-12.7,29.05,South,180,0.0,0.0,82,0.00,CLR,,0.00,WeatherDisplay:10.37,2013-02-06 07:30:00,
2013-02-06 01:35:00,-8.3,-12.3,29.05,West,270,1.1,0.0,82,0.00,CLR,,0.00,WeatherDisplay:10.37,2013-02-06 07:35:00,
2013-02-06 01:40:00,-8.3,-12.3,29.05,West,270,0.0,0.0,82,0.00,CLR,,0.00,WeatherDisplay:10.37,2013-02-06 07:40:00,
2013-02-06 01:45:00,-8.5,-12.5,29.05,South,180,1.1,0.0,82,0.00,CLR,,0.00,WeatherDisplay:10.37,2013-02-06 07:45:00,
2013-02-06 01:50:00,-8.7,-12.7,29.06,South,180,1.1,0.0,82,0.00,CLR,,0.00,WeatherDisplay:10.37,2013-02-06 07:50:00,
2013-02-06 01:55:00,-8.9,-13.1,29.06,South,180,0.0,0.0,81,0.00,CLR,,0.00,WeatherDisplay:10.37,2013-02-06 07:55:00,
2013-02-06 02:00:00,-9.0,-13.3,29.06,South,180,0.0,0.0,81,0.00,CLR,,0.00,WeatherDisplay:10.37,2013-02-06 08:00:00,
2013-02-06 02:05:00,-9.0,-13.3,29.06,South,180,0.0,0.0,81,0.00,CLR,,0.00,WeatherDisplay:10.37,2013-02-06 08:05:00,
2013-02-06 02:10:00,-9.6,-13.8,29.05,South,180,0.0,0.0,81,0.00,CLR,,0.00,WeatherDisplay:10.37,2013-02-06 08:10:00,
2013-02-06 02:15:00,-9.4,-13.6,29.06,West,270,0.0,0.0,81,0.00,CLR,,0.00,WeatherDisplay:10.37,2013-02-06 08:15:00,
2013-02-06 02:20:00,-9.4,-13.6,29.06,NW,315,1.1,0.0,81,0.00,CLR,,0.00,WeatherDisplay:10.37,2013-02-06 08:20:00,
2013-02-06 02:25:00,-9.6,-13.8,29.06,NW,315,1.1,0.0,81,0.00,CLR,,0.00,WeatherDisplay:10.37,2013-02-06 08:25:00,
2013-02-06 02:30:00,-9.8,-14.0,29.06,NW,315,0.0,0.0,81,0.00,CLR,,0.00,WeatherDisplay:10.37,2013-02-06 08:30:00,
2013-02-06 02:35:00,-9.8,-14.0,29.06,West,270,1.1,0.0,81,0.00,CLR,,0.00,WeatherDisplay:10.37,2013-02-06 08:35:00,
2013-02-06 02:40:00,-9.6,-13.8,29.06,South,180,1.1,0.0,81,0.00,CLR,,0.00,WeatherDisplay:10.37,2013-02-06 08:40:00,
2013-02-06 02:45:00,-9.0,-13.0,29.07,SW,225,0.0,0.0,82,0.00,CLR,,0.00,WeatherDisplay:10.37,2013-02-06 08:45:00,
2013-02-06 02:50:00,-9.2,-13.2,29.06,West,270,1.1,0.0,82,0.00,CLR,,0.00,WeatherDisplay:10.37,2013-02-06 08:50:00,
2013-02-06 02:55:00,-9.4,-13.4,29.07,SW,225,2.3,2.3,82,0.00,CLR,,0.00,WeatherDisplay:10.37,2013-02-06 08:55:00,
2013-02-06 03:00:00,-8.9,-12.9,29.07,SW,225,1.1,1.1,82,0.00,CLR,,0.00,WeatherDisplay:10.37,2013-02-06 09:00:00,
2013-02-06 03:05:00,-8.7,-12.7,29.07,West,270,1.1,1.1,82,0.00,CLR,,0.00,WeatherDisplay:10.37,2013-02-06 09:05:00,
2013-02-06 03:10:00,-8.3,-12.3,29.07,SW,225,1.1,0.0,82,0.00,CLR,,0.00,WeatherDisplay:10.37,2013-02-06 09:10:00,
2013-02-06 03:15:00,-8.7,-12.9,29.07,South,180,1.1,0.0,81,0.00,CLR,,0.00,WeatherDisplay:10.37,2013-02-06 09:15:00,
2013-02-06 03:20:00,-9.0,-13.3,29.07,South,180,1.1,1.1,81,0.00,CLR,,0.00,WeatherDisplay:10.37,2013-02-06 09:20:00,
2013-02-06 03:25:00,-9.2,-13.5,29.06,South,180,1.1,0.0,81,0.00,CLR,,0.00,WeatherDisplay:10.37,2013-02-06 09:25:00,
2013-02-06 03:30:00,-9.6,-13.8,29.07,South,180,1.1,0.0,81,0.00,CLR,,0.00,WeatherDisplay:10.37,2013-02-06 09:30:00,
2013-02-06 03:35:00,-9.9,-14.2,29.06,SW,225,1.1,0.0,81,0.00,CLR,,0.00,WeatherDisplay:10.37,2013-02-06 09:35:00,
2013-02-06 03:40:00,-10.3,-14.5,29.06,NW,315,1.1,0.0,81,0.00,CLR,,0.00,WeatherDisplay:10.37,2013-02-06 09:40:00,
2013-02-06 03:45:00,-10.7,-14.9,29.06,NW,315,1.1,0.0,81,0.00,CLR,,0.00,WeatherDisplay:10.37,2013-02-06 09:45:00,
2013-02-06 03:50:00,-10.7,-14.9,29.06,NW,315,0.0,0.0,81,0.00,CLR,,0.00,WeatherDisplay:10.37,2013-02-06 09:50:00,
2013-02-06 03:55:00,-10.7,-14.9,29.06,NW,315,0.0,0.0,81,0.00,CLR,,0.00,WeatherDisplay:10.37,2013-02-06 09:55:00,
2013-02-06 04:00:00,-10.8,-15.1,29.06,NW,315,1.1,0.0,81,0.00,CLR,,0.00,WeatherDisplay:10.37,2013-02-06 10:00:00,
2013-02-06 04:05:00,-10.8,-15.1,29.07,NW,315,1.1,0.0,81,0.00,CLR,,0.00,WeatherDisplay:10.37,2013-02-06 10:05:00,
2013-02-06 04:10:00,-11.0,-15.2,29.06,NW,315,0.0,0.0,81,0.00,CLR,,0.00,WeatherDisplay:10.37,2013-02-06 10:10:00,
2013-02-06 04:15:00,-10.8,-15.1,29.06,South,180,1.1,1.1,81,0.00,CLR,,0.00,WeatherDisplay:10.37,2013-02-06 10:15:00,
2013-02-06 04:20:00,-10.7,-14.9,29.06,South,180,0.0,0.0,81,0.00,CLR,,0.00,WeatherDisplay:10.37,2013-02-06 10:20:00,
2013-02-06 04:25:00,-10.8,-15.1,29.06,South,180,0.0,0.0,81,0.00,CLR,,0.00,WeatherDisplay:10.37,2013-02-06 10:25:00,
2013-02-06 04:30:00,-11.2,-15.7,29.06,South,180,0.0,0.0,80,0.00,CLR,,0.00,WeatherDisplay:10.37,2013-02-06 10:30:00,
2013-02-06 04:35:00,-11.4,-15.8,29.06,South,180,0.0,0.0,80,0.00,CLR,,0.00,WeatherDisplay:10.37,2013-02-06 10:35:00,
2013-02-06 04:40:00,-11.6,-15.8,29.06,West,270,1.1,0.0,81,0.00,CLR,,0.00,WeatherDisplay:10.37,2013-02-06 10:40:00,
2013-02-06 04:45:00,-11.6,-15.8,29.06,West,270,1.1,0.0,81,0.00,CLR,,0.00,WeatherDisplay:10.37,2013-02-06 10:45:00,
2013-02-06 04:50:00,-11.6,-15.8,29.06,West,270,1.1,0.0,81,0.00,CLR,,0.00,WeatherDisplay:10.37,2013-02-06 10:50:00,
2013-02-06 04:55:00,-11.6,-15.8,29.06,SW,225,1.1,0.0,81,0.00,CLR,,0.00,WeatherDisplay:10.37,2013-02-06 10:55:00,
2013-02-06 05:00:00,-11.6,-16.0,29.06,SW,225,0.0,0.0,80,0.00,CLR,,0.00,WeatherDisplay:10.37,2013-02-06 11:00:00,
2013-02-06 05:05:00,-11.6,-16.0,29.06,SW,225,0.0,0.0,80,0.00,CLR,,0.00,WeatherDisplay:10.37,2013-02-06 11:05:00,
2013-02-06 05:10:00,-11.7,-16.2,29.06,South,180,0.0,0.0,80,0.00,CLR,,0.00,WeatherDisplay:10.37,2013-02-06 11:10:00,
2013-02-06 05:15:00,-11.7,-16.2,29.06,South,180,1.1,0.0,80,0.00,CLR,,0.00,WeatherDisplay:10.37,2013-02-06 11:15:00,
2013-02-06 05:20:00,-11.7,-16.2,29.06,South,180,1.1,0.0,80,0.00,CLR,,0.00,WeatherDisplay:10.37,2013-02-06 11:20:00,
2013-02-06 05:25:00,-11.7,-16.2,29.06,South,180,0.0,0.0,80,0.00,CLR,,0.00,WeatherDisplay:10.37,2013-02-06 11:25:00,
2013-02-06 05:30:00,-11.7,-16.2,29.05,South,180,1.1,0.0,80,0.00,CLR,,0.00,WeatherDisplay:10.37,2013-02-06 11:30:00,
2013-02-06 05:35:00,-11.7,-16.2,29.06,South,180,1.1,0.0,80,0.00,CLR,,0.00,WeatherDisplay:10.37,2013-02-06 11:35:00,
2013-02-06 05:40:00,-11.9,-16.4,29.06,South,180,1.1,0.0,80,0.00,CLR,,0.00,WeatherDisplay:10.37,2013-02-06 11:40:00,
2013-02-06 05:45:00,-11.9,-16.4,29.06,South,180,1.1,0.0,80,0.00,CLR,,0.00,WeatherDisplay:10.37,2013-02-06 11:45:00,
2013-02-06 05:50:00,-12.1,-16.5,29.05,South,180,0.0,0.0,80,0.00,CLR,,0.00,WeatherDisplay:10.37,2013-02-06 11:50:00,
2013-02-06 05:55:00,-12.3,-16.7,29.06,South,180,0.0,0.0,80,0.00,CLR,,0.00,WeatherDisplay:10.37,2013-02-06 11:55:00,
2013-02-06 06:00:00,-12.3,-16.7,29.05,South,180,0.0,0.0,80,0.00,CLR,,0.00,WeatherDisplay:10.37,2013-02-06 12:00:00,
2013-02-06 06:05:00,-12.3,-16.7,29.05,South,180,0.0,0.0,80,0.00,CLR,,0.00,WeatherDisplay:10.37,2013-02-06 12:05:00,
2013-02-06 06:10:00,-11.7,-16.2,29.05,South,180,1.1,0.0,80,0.00,CLR,,0.00,WeatherDisplay:10.37,2013-02-06 12:10:00,
2013-02-06 06:15:00,-11.0,-15.2,29.06,West,270,1.1,0.0,81,0.00,CLR,,0.00,WeatherDisplay:10.37,2013-02-06 12:15:00,
2013-02-06 06:20:00,-10.5,-14.7,29.06,West,270,0.0,0.0,81,0.00,CLR,,0.00,WeatherDisplay:10.37,2013-02-06 12:20:00,
2013-02-06 06:25:00,-9.9,-14.2,29.05,NW,315,1.1,0.0,81,0.00,CLR,,0.00,WeatherDisplay:10.37,2013-02-06 12:25:00,
2013-02-06 06:30:00,-9.6,-13.6,29.06,North,0,1.1,1.1,82,0.00,CLR,,0.00,WeatherDisplay:10.37,2013-02-06 12:30:00,
2013-02-06 06:35:00,-9.2,-13.2,29.06,North,0,1.1,0.0,82,0.00,CLR,,0.00,WeatherDisplay:10.37,2013-02-06 12:35:00,
2013-02-06 06:40:00,-8.7,-12.7,29.06,North,0,0.0,0.0,82,0.00,CLR,,0.00,WeatherDisplay:10.37,2013-02-06 12:40:00,
2013-02-06 06:45:00,-8.1,-12.2,29.06,North,0,1.1,0.0,82,0.00,CLR,,0.00,WeatherDisplay:10.37,2013-02-06 12:45:00,
2013-02-06 06:50:00,-7.8,-11.8,29.07,NW,315,1.1,1.1,82,0.00,CLR,,0.00,WeatherDisplay:10.37,2013-02-06 12:50:00,
2013-02-06 06:55:00,-7.6,-11.6,29.07,North,0,1.1,0.0,82,0.00,CLR,,0.00,WeatherDisplay:10.37,2013-02-06 12:55:00,
2013-02-06 07:00:00,-7.6,-11.6,29.06,North,0,1.1,0.0,82,0.00,CLR,,0.00,WeatherDisplay:10.37,2013-02-06 13:00:00,
2013-02-06 07:05:00,-7.6,-11.6,29.07,North,0,1.1,0.0,82,0.00,CLR,,0.00,WeatherDisplay:10.37,2013-02-06 13:05:00,
2013-02-06 07:10:00,-7.1,-11.1,29.07,SW,225,1.1,0.0,82,0.00,CLR,,0.00,WeatherDisplay:10.37,2013-02-06 13:10:00,
2013-02-06 07:15:00,-6.7,-10.8,29.09,West,270,2.3,2.3,82,0.00,CLR,,0.00,WeatherDisplay:10.37,2013-02-06 13:15:00,
2013-02-06 07:20:00,-6.7,-10.8,29.09,South,180,1.1,1.1,82,0.00,CLR,,0.00,WeatherDisplay:10.37,2013-02-06 13:20:00,
2013-02-06 07:25:00,-7.1,-11.1,29.10,SW,225,2.3,2.3,82,0.00,CLR,,0.00,WeatherDisplay:10.37,2013-02-06 13:25:00,
2013-02-06 07:30:00,-7.2,-11.3,29.09,SE,135,1.1,1.6,82,0.00,CLR,,0.00,WeatherDisplay:10.37,2013-02-06 13:30:00,
2013-02-06 07:35:00,-7.4,-11.5,29.09,South,180,1.1,1.1,82,0.00,CLR,,0.00,WeatherDisplay:10.37,2013-02-06 13:35:00,
2013-02-06 07:40:00,-7.6,-11.6,29.08,SE,135,3.5,3.5,82,0.00,CLR,,0.00,WeatherDisplay:10.37,2013-02-06 13:40:00,
2013-02-06 07:45:00,-7.4,-11.5,29.09,SE,135,2.3,2.3,82,0.00,CLR,,0.00,WeatherDisplay:10.37,2013-02-06 13:45:00,
2013-02-06 07:50:00,-7.2,-11.3,29.08,SE,135,1.1,0.0,82,0.00,CLR,,0.00,WeatherDisplay:10.37,2013-02-06 13:50:00,
2013-02-06 07:55:00,-6.9,-10.9,29.08,SE,135,0.0,0.0,82,0.00,CLR,,0.00,WeatherDisplay:10.37,2013-02-06 13:55:00,
2013-02-06 08:00:00,-6.3,-10.4,29.08,SE,135,0.0,0.0,82,0.00,CLR,,0.00,WeatherDisplay:10.37,2013-02-06 14:00:00,
2013-02-06 08:05:00,-5.4,-9.5,29.09,NW,315,1.1,1.1,82,0.00,CLR,,0.00,WeatherDisplay:10.37,2013-02-06 14:05:00,
2013-02-06 08:10:00,-4.7,-8.8,29.09,NW,315,1.1,0.0,82,0.00,CLR,,0.00,WeatherDisplay:10.37,2013-02-06 14:10:00,
2013-02-06 08:15:00,-3.6,-7.5,29.08,NW,315,1.1,1.1,83,0.00,CLR,,0.00,WeatherDisplay:10.37,2013-02-06 14:15:00,
2013-02-06 08:20:00,-3.6,-7.5,29.08,NW,315,1.1,1.1,83,0.00,CLR,,0.00,WeatherDisplay:10.37,2013-02-06 14:20:00,
2013-02-06 08:25:00,-1.8,-5.7,29.09,NW,315,1.1,1.1,83,0.00,CLR,,0.00,WeatherDisplay:10.37,2013-02-06 14:25:00,
2013-02-06 08:30:00,-1.5,-5.6,29.08,North,0,1.1,0.0,82,0.00,CLR,,0.00,WeatherDisplay:10.37,2013-02-06 14:30:00,
2013-02-06 08:35:00,-0.4,-4.6,29.08,NW,315,2.3,2.3,82,0.00,CLR,,0.00,WeatherDisplay:10.37,2013-02-06 14:35:00,
2013-02-06 08:40:00,2.8,-1.7,29.08,NW,315,3.5,3.5,81,0.00,CLR,,0.00,WeatherDisplay:10.37,2013-02-06 14:40:00,
2013-02-06 08:45:00,4.5,-0.6,29.09,North,0,2.3,2.3,79,0.00,CLR,,0.00,WeatherDisplay:10.37,2013-02-06 14:45:00,
2013-02-06 08:50:00,5.9,0.5,29.09,NE,45,1.1,0.0,78,0.00,CLR,,0.00,WeatherDisplay:10.37,2013-02-06 14:50:00,
2013-02-06 08:55:00,5.7,-0.5,29.09,North,0,1.1,1.1,75,0.00,CLR,,0.00,WeatherDisplay:10.37,2013-02-06 14:55:00,
2013-02-06 09:00:00,5.9,-0.3,29.09,North,0,1.1,0.0,75,0.00,CLR,,0.00,WeatherDisplay:10.37,2013-02-06 15:00:00,
2013-02-06 09:05:00,5.9,-0.3,29.09,North,0,1.1,0.0,75,0.00,CLR,,0.00,WeatherDisplay:10.37,2013-02-06 15:05:00,
2013-02-06 09:10:00,8.1,1.8,29.09,East,90,1.1,1.1,75,0.00,CLR,,0.00,WeatherDisplay:10.37,2013-02-06 15:10:00,
2013-02-06 09:15:00,7.5,1.0,29.09,SE,135,2.3,2.3,74,0.00,CLR,,0.00,WeatherDisplay:10.37,2013-02-06 15:15:00,
2013-02-06 09:20:00,7.2,0.9,29.10,SE,135,1.1,1.1,75,0.00,CLR,,0.00,WeatherDisplay:10.37,2013-02-06 15:20:00,
2013-02-06 09:25:00,7.2,1.5,29.10,West,270,3.5,0.0,77,0.00,CLR,,0.00,WeatherDisplay:10.37,2013-02-06 15:25:00,
2013-02-06 09:30:00,7.7,2.0,29.10,SW,225,1.1,0.0,77,0.00,CLR,,0.00,WeatherDisplay:10.37,2013-02-06 15:30:00,
2013-02-06 09:35:00,7.5,1.8,29.10,SW,225,3.5,3.5,77,0.00,CLR,,0.00,WeatherDisplay:10.37,2013-02-06 15:35:00,
2013-02-06 09:40:00,7.2,1.5,29.09,SW,225,3.5,3.5,77,0.00,CLR,,0.00,WeatherDisplay:10.37,2013-02-06 15:40:00,
2013-02-06 09:45:00,7.0,1.6,29.09,SW,225,3.5,3.5,78,0.00,CLR,,0.00,WeatherDisplay:10.37,2013-02-06 15:45:00,
2013-02-06 09:50:00,7.9,2.7,29.08,SW,225,1.1,1.1,79,0.00,CLR,,0.00,WeatherDisplay:10.37,2013-02-06 15:50:00,
2013-02-06 09:55:00,9.0,4.0,29.08,South,180,1.1,0.0,80,0.00,CLR,,0.00,WeatherDisplay:10.37,2013-02-06 15:55:00,
2013-02-06 10:00:00,9.9,4.4,29.08,SE,135,3.5,3.5,78,0.00,CLR,,0.00,WeatherDisplay:10.37,2013-02-06 16:00:00,
2013-02-06 10:05:00,9.9,4.4,29.08,SE,135,3.5,3.5,78,0.00,CLR,,0.00,WeatherDisplay:10.37,2013-02-06 16:05:00,
2013-02-06 10:10:00,10.0,4.8,29.09,East,90,3.5,3.5,79,0.00,CLR,,0.00,WeatherDisplay:10.37,2013-02-06 16:10:00,
2013-02-06 10:15:00,10.6,5.4,29.09,SE,135,3.5,3.5,79,0.00,CLR,,0.00,WeatherDisplay:10.37,2013-02-06 16:15:00,
2013-02-06 10:21:00,10.8,5.5,29.08,ESE,112,4.6,4.6,79,0.00,CLR,,0.00,WeatherDisplay:10.37,2013-02-06 16:21:00,
2013-02-06 10:26:00,11.1,5.9,29.08,SE,135,4.6,4.6,79,0.00,CLR,,0.00,WeatherDisplay:10.37,2013-02-06 16:26:00,
2013-02-06 10:31:00,11.1,5.9,29.09,SE,135,5.8,5.8,79,0.00,CLR,,0.00,WeatherDisplay:10.37,2013-02-06 16:31:00,
2013-02-06 10:36:00,11.5,6.2,29.09,South,180,5.8,5.8,79,0.00,CLR,,0.00,WeatherDisplay:10.37,2013-02-06 16:36:00,
2013-02-06 10:41:00,12.2,6.9,29.09,SE,135,4.6,4.6,79,0.00,CLR,,0.00,WeatherDisplay:10.37,2013-02-06 16:41:00,
2013-02-06 10:46:00,13.1,7.2,29.09,SE,135,4.6,4.6,77,0.00,CLR,,0.00,WeatherDisplay:10.37,2013-02-06 16:46:00,
2013-02-06 10:51:00,14.0,8.1,29.09,SE,135,3.5,3.5,77,0.00,CLR,,0.00,WeatherDisplay:10.37,2013-02-06 16:51:00,
2013-02-06 10:56:00,14.9,8.4,29.09,SE,135,4.6,4.6,75,0.00,CLR,,0.00,WeatherDisplay:10.37,2013-02-06 16:56:00,
2013-02-06 11:01:00,14.7,7.9,29.09,SE,135,3.5,3.5,74,0.00,CLR,,0.00,WeatherDisplay:10.37,2013-02-06 17:01:00,
2013-02-06 11:06:00,14.7,8.2,29.09,SE,135,3.5,3.5,75,0.00,CLR,,0.00,WeatherDisplay:10.37,2013-02-06 17:06:00,
2013-02-06 11:12:00,15.6,9.1,29.08,SE,135,4.6,4.6,75,0.00,CLR,,0.00,WeatherDisplay:10.37,2013-02-06 17:12:00,
2013-02-06 11:17:00,16.7,9.5,29.08,South,180,4.6,4.6,73,0.00,CLR,,0.00,WeatherDisplay:10.37,2013-02-06 17:17:00,
2013-02-06 11:22:00,16.7,9.5,29.09,SE,135,3.5,3.5,73,0.00,CLR,,0.00,WeatherDisplay:10.37,2013-02-06 17:22:00,
2013-02-06 11:27:00,17.4,9.9,29.08,SE,135,3.5,3.5,72,0.00,CLR,,0.00,WeatherDisplay:10.37,2013-02-06 17:27:00,
2013-02-06 11:32:00,16.9,9.7,29.09,SE,135,5.8,5.8,73,0.00,CLR,,0.00,WeatherDisplay:10.37,2013-02-06 17:32:00,
2013-02-06 11:37:00,16.2,9.3,29.09,SE,135,5.8,5.8,74,0.00,CLR,,0.00,WeatherDisplay:10.37,2013-02-06 17:37:00,
2013-02-06 11:42:00,16.0,9.5,29.09,SE,135,5.8,5.8,75,0.00,CLR,,0.00,WeatherDisplay:10.37,2013-02-06 17:42:00,
2013-02-06 11:47:00,15.6,9.4,29.08,SE,135,5.8,5.8,76,0.00,CLR,,0.00,WeatherDisplay:10.37,2013-02-06 17:47:00,
2013-02-06 11:52:00,15.8,9.9,29.08,SE,135,4.6,4.6,77,0.00,CLR,,0.00,WeatherDisplay:10.37,2013-02-06 17:52:00,
2013-02-06 11:57:00,16.3,10.4,29.08,South,180,5.8,5.8,77,0.00,CLR,,0.00,WeatherDisplay:10.37,2013-02-06 17:57:00,
2013-02-06 12:02:00,16.5,10.3,29.08,SE,135,4.6,4.6,76,0.00,CLR,,0.00,WeatherDisplay:10.37,2013-02-06 18:02:00,
2013-02-06 12:07:00,16.2,10.5,29.08,SE,135,4.6,5.4,78,0.00,CLR,,0.00,WeatherDisplay:10.37,2013-02-06 18:07:00,
2013-02-06 12:12:00,16.0,10.9,29.07,SE,135,6.9,6.9,80,0.00,CLR,,0.00,WeatherDisplay:10.37,2013-02-06 18:12:00,
2013-02-06 12:17:00,16.3,11.8,29.07,SE,135,4.6,4.6,82,0.00,CLR,,0.00,WeatherDisplay:10.37,2013-02-06 18:17:00,
2013-02-06 12:22:00,17.1,12.5,29.07,SE,135,4.6,4.6,82,0.00,CLR,,0.00,WeatherDisplay:10.37,2013-02-06 18:22:00,
2013-02-06 12:27:00,17.8,13.2,29.07,SE,135,4.6,4.6,82,0.00,CLR,,0.00,WeatherDisplay:10.37,2013-02-06 18:27:00,
2013-02-06 12:32:00,18.1,13.6,29.06,SE,135,3.5,3.5,82,0.00,CLR,,0.00,WeatherDisplay:10.37,2013-02-06 18:32:00,
2013-02-06 12:38:00,18.3,13.7,29.06,North,0,4.6,4.6,82,0.00,CLR,,0.00,WeatherDisplay:10.37,2013-02-06 18:38:00,
2013-02-06 12:43:00,18.5,13.9,29.06,NE,45,4.6,4.6,82,0.00,CLR,,0.00,WeatherDisplay:10.37,2013-02-06 18:43:00,
2013-02-06 12:48:00,19.0,14.4,29.06,SE,135,3.5,3.5,82,0.00,CLR,,0.00,WeatherDisplay:10.37,2013-02-06 18:48:00,
2013-02-06 12:53:00,18.9,14.0,29.05,East,90,3.5,3.5,81,0.00,CLR,,0.00,WeatherDisplay:10.37,2013-02-06 18:53:00,
2013-02-06 12:58:00,19.0,14.4,29.05,East,90,2.3,2.3,82,0.00,CLR,,0.00,WeatherDisplay:10.37,2013-02-06 18:58:00,
2013-02-06 13:03:00,18.9,14.3,29.04,East,90,3.5,3.5,82,0.00,CLR,,0.00,WeatherDisplay:10.37,2013-02-06 19:03:00,
2013-02-06 13:08:00,18.9,14.6,29.04,East,90,3.5,3.5,83,0.00,CLR,,0.00,WeatherDisplay:10.37,2013-02-06 19:08:00,
2013-02-06 13:13:00,19.4,15.4,29.04,SE,135,3.5,3.5,84,0.00,CLR,,0.00,WeatherDisplay:10.37,2013-02-06 19:13:00,
2013-02-06 13:18:00,19.8,16.0,29.03,SE,135,5.8,5.8,85,0.00,CLR,,0.00,WeatherDisplay:10.37,2013-02-06 19:18:00,
2013-02-06 13:23:00,19.8,16.3,29.04,SE,135,5.8,5.8,86,0.00,CLR,,0.00,WeatherDisplay:10.37,2013-02-06 19:23:00,
2013-02-06 13:28:00,19.6,16.3,29.04,SE,135,8.1,8.1,87,0.00,CLR,,0.00,WeatherDisplay:10.37,2013-02-06 19:28:00,
2013-02-06 13:33:00,19.8,16.8,29.03,South,180,8.1,8.1,88,0.00,CLR,,0.00,WeatherDisplay:10.37,2013-02-06 19:33:00,
2013-02-06 13:38:00,19.9,17.2,29.02,SE,135,4.6,4.6,89,0.00,CLR,,0.00,WeatherDisplay:10.37,2013-02-06 19:38:00,
2013-02-06 13:43:00,20.3,17.6,29.02,East,90,3.5,3.5,89,0.00,CLR,,0.00,WeatherDisplay:10.37,2013-02-06 19:43:00,
2013-02-06 13:48:00,20.5,17.8,29.01,East,90,3.5,3.5,89,0.00,CLR,,0.00,WeatherDisplay:10.37,2013-02-06 19:48:00,
2013-02-06 13:53:00,20.8,18.1,29.01,East,90,3.5,3.5,89,0.00,CLR,,0.00,WeatherDisplay:10.37,2013-02-06 19:53:00,
2013-02-06 13:58:00,20.8,18.1,29.01,SE,135,3.5,3.5,89,0.00,CLR,,0.00,WeatherDisplay:10.37,2013-02-06 19:58:00,
2013-02-06 14:03:00,21.0,18.3,29.01,East,90,3.5,3.5,89,0.00,CLR,,0.00,WeatherDisplay:10.37,2013-02-06 20:03:00,
2013-02-06 14:08:00,21.6,19.1,29.01,South,180,3.5,3.5,90,0.00,CLR,,0.00,WeatherDisplay:10.37,2013-02-06 20:08:00,
2013-02-06 14:17:00,21.4,18.6,29.01,East,90,6.9,6.9,89,0.00,CLR,,0.00,WeatherDisplay:10.37,2013-02-06 20:17:00,
2013-02-06 14:22:00,21.4,18.9,29.02,SE,135,6.9,6.9,90,0.00,CLR,,0.00,WeatherDisplay:10.37,2013-02-06 20:22:00,
2013-02-06 14:27:00,21.6,19.1,29.02,South,180,5.8,5.8,90,0.00,CLR,,0.00,WeatherDisplay:10.37,2013-02-06 20:27:00,
2013-02-06 14:32:00,21.9,19.4,29.01,East,90,3.5,3.5,90,0.00,CLR,,0.00,WeatherDisplay:10.37,2013-02-06 20:32:00,
2013-02-06 14:37:00,22.3,19.5,29.01,East,90,5.8,5.8,89,0.00,CLR,,0.00,WeatherDisplay:10.37,2013-02-06 20:37:00,
2013-02-06 14:42:00,22.3,19.5,29.00,East,90,3.5,3.5,89,0.00,CLR,,0.00,WeatherDisplay:10.37,2013-02-06 20:42:00,
2013-02-06 14:47:00,22.3,19.3,28.99,East,90,3.5,3.5,88,0.00,CLR,,0.00,WeatherDisplay:10.37,2013-02-06 20:47:00,
2013-02-06 14:52:00,22.3,19.3,28.99,East,90,3.5,3.5,88,0.00,CLR,,0.00,WeatherDisplay:10.37,2013-02-06 20:52:00,
2013-02-06 14:57:00,22.3,19.5,28.99,SE,135,8.1,8.1,89,0.00,CLR,,0.00,WeatherDisplay:10.37,2013-02-06 20:57:00,
2013-02-06 15:02:00,22.3,19.5,28.99,SE,135,5.8,5.8,89,0.00,CLR,,0.00,WeatherDisplay:10.37,2013-02-06 21:02:00,
2013-02-06 15:07:00,22.3,19.5,28.98,SE,135,5.8,5.8,89,0.00,CLR,,0.00,WeatherDisplay:10.37,2013-02-06 21:07:00,
2013-02-06 15:12:00,22.3,19.3,28.99,SE,135,10.4,10.4,88,0.00,CLR,,0.00,WeatherDisplay:10.37,2013-02-06 21:12:00,
2013-02-06 15:17:00,22.3,19.3,28.99,SE,135,5.8,5.8,88,0.00,CLR,,0.00,WeatherDisplay:10.37,2013-02-06 21:17:00,
2013-02-06 15:22:00,22.3,19.0,28.98,SE,135,8.1,8.1,87,0.00,CLR,,0.00,WeatherDisplay:10.37,2013-02-06 21:22:00,
2013-02-06 15:27:00,22.1,18.8,28.98,SE,135,5.8,5.8,87,0.00,CLR,,0.00,WeatherDisplay:10.37,2013-02-06 21:27:00,
2013-02-06 15:32:00,22.1,18.8,28.98,SE,135,8.1,8.1,87,0.00,CLR,,0.00,WeatherDisplay:10.37,2013-02-06 21:32:00,
2013-02-06 15:37:00,22.1,18.8,28.98,SSE,158,5.8,5.8,87,0.00,CLR,,0.00,WeatherDisplay:10.37,2013-02-06 21:37:00,
2013-02-06 15:42:00,21.9,18.6,28.97,SE,135,6.9,6.9,87,0.00,CLR,,0.00,WeatherDisplay:10.37,2013-02-06 21:42:00,
2013-02-06 15:47:00,22.1,18.8,28.97,SE,135,6.9,6.9,87,0.00,CLR,,0.00,WeatherDisplay:10.37,2013-02-06 21:47:00,
2013-02-06 15:52:00,22.1,19.1,28.96,SE,135,5.8,5.8,88,0.00,CLR,,0.00,WeatherDisplay:10.37,2013-02-06 21:52:00,
2013-02-06 15:57:00,22.3,19.0,28.95,SE,135,8.1,8.1,87,0.00,CLR,,0.00,WeatherDisplay:10.37,2013-02-06 21:57:00,
2013-02-06 16:02:00,22.3,19.0,28.96,SE,135,8.1,8.1,87,0.00,CLR,,0.00,WeatherDisplay:10.37,2013-02-06 22:02:00,
2013-02-06 16:07:00,22.3,19.0,28.97,SE,135,8.1,8.1,87,0.00,CLR,,0.00,WeatherDisplay:10.37,2013-02-06 22:07:00,
2013-02-06 16:12:00,22.5,19.2,28.97,SSE,158,3.5,3.5,87,0.00,CLR,,0.00,WeatherDisplay:10.37,2013-02-06 22:12:00,
2013-02-06 16:17:00,22.5,19.2,28.96,SE,135,4.6,4.6,87,0.00,CLR,,0.00,WeatherDisplay:10.37,2013-02-06 22:17:00,
2013-02-06 16:22:00,22.6,19.4,28.97,East,90,4.6,4.6,87,0.00,CLR,,0.00,WeatherDisplay:10.37,2013-02-06 22:22:00,
2013-02-06 16:27:00,22.5,19.2,28.97,ESE,112,3.5,3.5,87,0.00,CLR,,0.00,WeatherDisplay:10.37,2013-02-06 22:27:00,
2013-02-06 16:32:00,22.5,19.2,28.96,ESE,112,6.9,6.9,87,0.00,CLR,,0.00,WeatherDisplay:10.37,2013-02-06 22:32:00,
2013-02-06 16:37:00,22.5,19.2,28.96,East,90,4.6,4.6,87,0.00,CLR,,0.00,WeatherDisplay:10.37,2013-02-06 22:37:00,
2013-02-06 16:42:00,22.3,19.0,28.96,SE,135,5.8,5.8,87,0.00,CLR,,0.00,WeatherDisplay:10.37,2013-02-06 22:42:00,
2013-02-06 16:47:00,22.3,19.0,28.96,SE,135,9.2,9.2,87,0.00,CLR,,0.00,WeatherDisplay:10.37,2013-02-06 22:47:00,
2013-02-06 16:52:00,22.3,19.0,28.95,SE,135,8.1,8.1,87,0.00,CLR,,0.00,WeatherDisplay:10.37,2013-02-06 22:52:00,
2013-02-06 16:57:00,22.3,19.0,28.95,SE,135,5.8,5.8,87,0.00,CLR,,0.00,WeatherDisplay:10.37,2013-02-06 22:57:00,
2013-02-06 17:02:00,22.3,19.0,28.95,ESE,112,4.6,4.6,87,0.00,CLR,,0.00,WeatherDisplay:10.37,2013-02-06 23:02:00,
2013-02-06 17:07:00,22.3,19.0,28.95,ESE,112,4.6,4.6,87,0.00,CLR,,0.00,WeatherDisplay:10.37,2013-02-06 23:07:00,
2013-02-06 17:12:00,22.3,19.0,28.95,SE,135,3.5,3.5,87,0.00,CLR,,0.00,WeatherDisplay:10.37,2013-02-06 23:12:00,
2013-02-06 17:17:00,22.3,19.0,28.96,East,90,6.9,6.9,87,0.00,CLR,,0.00,WeatherDisplay:10.37,2013-02-06 23:17:00,
2013-02-06 17:22:00,22.3,19.0,28.97,SE,135,4.6,4.6,87,0.00,CLR,,0.00,WeatherDisplay:10.37,2013-02-06 23:22:00,
2013-02-06 17:27:00,22.5,19.2,28.97,SE,135,4.6,4.6,87,0.00,CLR,,0.00,WeatherDisplay:10.37,2013-02-06 23:27:00,
2013-02-06 17:32:00,22.5,19.2,28.97,SE,135,3.5,3.5,87,0.00,CLR,,0.00,WeatherDisplay:10.37,2013-02-06 23:32:00,
2013-02-06 17:37:00,22.5,19.2,28.98,SE,135,5.8,5.8,87,0.00,CLR,,0.00,WeatherDisplay:10.37,2013-02-06 23:37:00,
2013-02-06 17:42:00,22.5,19.2,28.98,SE,135,3.5,3.5,87,0.00,CLR,,0.00,WeatherDisplay:10.37,2013-02-06 23:42:00,
2013-02-06 17:47:00,22.6,19.4,28.98,SE,135,5.8,5.8,87,0.00,CLR,,0.00,WeatherDisplay:10.37,2013-02-06 23:47:00,
2013-02-06 17:52:00,22.6,19.4,28.98,SE,135,6.9,6.9,87,0.00,CLR,,0.00,WeatherDisplay:10.37,2013-02-06 23:52:00,
2013-02-06 17:57:00,22.6,19.4,28.98,SE,135,5.8,5.8,87,0.00,CLR,,0.00,WeatherDisplay:10.37,2013-02-06 23:57:00,
2013-02-06 18:02:00,22.6,19.4,28.98,SE,135,3.5,3.5,87,0.00,CLR,,0.00,WeatherDisplay:10.37,2013-02-07 00:02:00,
2013-02-06 18:07:00,22.6,19.4,28.98,SE,135,3.5,3.5,87,0.00,CLR,,0.00,WeatherDisplay:10.37,2013-02-07 00:07:00,
2013-02-06 18:12:00,22.8,19.5,28.98,SE,135,3.5,3.5,87,0.00,CLR,,0.00,WeatherDisplay:10.37,2013-02-07 00:12:00,
2013-02-06 18:17:00,22.8,19.5,28.98,SE,135,5.8,5.8,87,0.00,CLR,,0.00,WeatherDisplay:10.37,2013-02-07 00:17:00,
2013-02-06 18:22:00,22.8,19.5,28.98,SE,135,6.0,6.0,87,0.00,CLR,,0.00,WeatherDisplay:10.37,2013-02-07 00:22:00,
2013-02-06 18:27:00,23.0,19.7,28.98,SE,135,6.9,6.9,87,0.00,CLR,,0.00,WeatherDisplay:10.37,2013-02-07 00:27:00,
2013-02-06 18:32:00,23.0,19.7,28.98,SE,135,5.8,5.8,87,0.00,CLR,,0.00,WeatherDisplay:10.37,2013-02-07 00:32:00,
2013-02-06 18:37:00,23.2,19.9,28.98,SE,135,5.8,5.8,87,0.00,CLR,,0.00,WeatherDisplay:10.37,2013-02-07 00:37:00,
2013-02-06 18:42:00,23.2,19.9,28.98,SE,135,6.9,6.9,87,0.00,CLR,,0.00,WeatherDisplay:10.37,2013-02-07 00:42:00,
2013-02-06 18:47:00,23.2,19.9,28.97,East,90,5.8,5.8,87,0.00,CLR,,0.00,WeatherDisplay:10.37,2013-02-07 00:47:00,
2013-02-06 18:52:00,23.2,19.9,28.98,SE,135,4.6,4.6,87,0.00,CLR,,0.00,WeatherDisplay:10.37,2013-02-07 00:52:00,
2013-02-06 18:57:00,23.4,20.1,28.97,SE,135,6.9,6.9,87,0.00,CLR,,0.00,WeatherDisplay:10.37,2013-02-07 00:57:00,
2013-02-06 19:02:00,23.4,20.1,28.98,South,180,4.6,4.6,87,0.00,CLR,,0.00,WeatherDisplay:10.37,2013-02-07 01:02:00,
2013-02-06 19:07:00,23.4,20.3,28.97,SE,135,5.8,5.8,88,0.00,CLR,,0.00,WeatherDisplay:10.37,2013-02-07 01:07:00,
2013-02-06 19:12:00,23.4,20.3,28.98,SE,135,5.8,5.8,88,0.00,CLR,,0.00,WeatherDisplay:10.37,2013-02-07 01:12:00,
2013-02-06 19:17:00,23.4,20.3,28.98,SE,135,3.8,3.8,88,0.00,CLR,,0.00,WeatherDisplay:10.37,2013-02-07 01:17:00,
2013-02-06 19:22:00,23.4,20.3,28.97,East,90,3.5,3.5,88,0.00,CLR,,0.00,WeatherDisplay:10.37,2013-02-07 01:22:00,
2013-02-06 19:27:00,23.4,20.3,28.98,SE,135,5.8,5.8,88,0.00,CLR,,0.00,WeatherDisplay:10.37,2013-02-07 01:27:00,
2013-02-06 19:32:00,23.4,20.3,28.98,SE,135,4.6,4.6,88,0.00,CLR,,0.00,WeatherDisplay:10.37,2013-02-07 01:32:00,
2013-02-06 19:37:00,23.4,20.3,28.98,SE,135,4.6,4.6,88,0.00,CLR,,0.00,WeatherDisplay:10.37,2013-02-07 01:37:00,
2013-02-06 19:42:00,23.5,20.5,28.98,SE,135,3.5,3.5,88,0.00,CLR,,0.00,WeatherDisplay:10.37,2013-02-07 01:42:00,
2013-02-06 19:47:00,23.5,20.5,28.98,SE,135,3.5,3.5,88,0.00,CLR,,0.00,WeatherDisplay:10.37,2013-02-07 01:47:00,
2013-02-06 19:52:00,23.5,20.5,28.98,SE,135,3.5,3.5,88,0.00,CLR,,0.00,WeatherDisplay:10.37,2013-02-07 01:52:00,
2013-02-06 19:57:00,23.5,20.5,28.98,SE,135,2.3,2.3,88,0.00,CLR,,0.00,WeatherDisplay:10.37,2013-02-07 01:57:00,
2013-02-06 20:02:00,23.7,20.7,28.98,East,90,3.5,3.5,88,0.00,CLR,,0.00,WeatherDisplay:10.37,2013-02-07 02:02:00,
2013-02-06 20:07:00,23.7,20.7,28.98,East,90,3.5,3.5,88,0.00,CLR,,0.00,WeatherDisplay:10.37,2013-02-07 02:07:00,
2013-02-06 20:12:00,23.7,21.0,28.98,SE,135,3.5,3.5,89,0.00,CLR,,0.00,WeatherDisplay:10.37,2013-02-07 02:12:00,
2013-02-06 20:17:00,23.7,20.7,28.98,SE,135,3.5,3.5,88,0.00,CLR,,0.00,WeatherDisplay:10.37,2013-02-07 02:17:00,
2013-02-06 20:22:00,23.9,20.9,28.98,SE,135,3.5,3.5,88,0.00,CLR,,0.00,WeatherDisplay:10.37,2013-02-07 02:22:00,
2013-02-06 20:27:00,23.9,20.9,28.98,SE,135,3.5,3.5,88,0.00,CLR,,0.00,WeatherDisplay:10.37,2013-02-07 02:27:00,
2013-02-06 20:32:00,23.9,20.9,28.98,SE,135,3.5,3.5,88,0.00,CLR,,0.00,WeatherDisplay:10.37,2013-02-07 02:32:00,
2013-02-06 20:37:00,23.9,21.1,28.98,SE,135,3.5,3.5,89,0.00,CLR,,0.00,WeatherDisplay:10.37,2013-02-07 02:37:00,
2013-02-06 20:42:00,23.9,20.9,28.98,SE,135,5.8,5.8,88,0.00,CLR,,0.00,WeatherDisplay:10.37,2013-02-07 02:42:00,
2013-02-06 20:47:00,24.1,21.3,28.98,SE,135,4.6,4.6,89,0.00,CLR,,0.00,WeatherDisplay:10.37,2013-02-07 02:47:00,
2013-02-06 20:52:00,24.1,21.3,28.99,SE,135,4.6,4.6,89,0.00,CLR,,0.00,WeatherDisplay:10.37,2013-02-07 02:52:00,
2013-02-06 20:57:00,24.1,21.3,28.98,SE,135,4.6,4.6,89,0.00,CLR,,0.00,WeatherDisplay:10.37,2013-02-07 02:57:00,
2013-02-06 21:02:00,24.3,21.2,28.98,SE,135,4.6,4.6,88,0.00,CLR,,0.00,WeatherDisplay:10.37,2013-02-07 03:02:00,
2013-02-06 21:07:00,24.3,21.2,28.98,SE,135,4.6,4.6,88,0.00,CLR,,0.00,WeatherDisplay:10.37,2013-02-07 03:07:00,
2013-02-06 21:12:00,24.3,21.2,28.99,SE,135,4.6,4.6,88,0.00,CLR,,0.00,WeatherDisplay:10.37,2013-02-07 03:12:00,
2013-02-06 21:17:00,24.3,21.2,28.99,SE,135,5.8,5.8,88,0.00,CLR,,0.00,WeatherDisplay:10.37,2013-02-07 03:17:00,
2013-02-06 21:22:00,24.3,21.2,28.99,SE,135,4.6,4.6,88,0.00,CLR,,0.00,WeatherDisplay:10.37,2013-02-07 03:22:00,
2013-02-06 21:27:00,24.3,21.2,28.99,SE,135,3.5,3.5,88,0.00,CLR,,0.00,WeatherDisplay:10.37,2013-02-07 03:27:00,
2013-02-06 21:32:00,24.4,21.4,28.99,SE,135,3.5,3.5,88,0.00,CLR,,0.00,WeatherDisplay:10.37,2013-02-07 03:32:00,
2013-02-06 21:37:00,24.4,21.4,28.98,SE,135,5.8,5.8,88,0.00,CLR,,0.00,WeatherDisplay:10.37,2013-02-07 03:37:00,
2013-02-06 21:42:00,24.4,21.4,28.99,SE,135,5.8,5.8,88,0.00,CLR,,0.00,WeatherDisplay:10.37,2013-02-07 03:42:00,
2013-02-06 21:47:00,24.4,21.4,28.98,SE,135,6.9,6.9,88,0.00,CLR,,0.00,WeatherDisplay:10.37,2013-02-07 03:47:00,
2013-02-06 21:52:00,24.4,21.4,28.99,SE,135,4.6,4.6,88,0.00,CLR,,0.00,WeatherDisplay:10.37,2013-02-07 03:52:00,
2013-02-06 21:57:00,24.4,21.4,28.99,SE,135,4.6,4.6,88,0.00,CLR,,0.00,WeatherDisplay:10.37,2013-02-07 03:57:00,
2013-02-06 22:02:00,24.4,21.4,28.99,SE,135,3.5,3.8,88,0.00,CLR,,0.00,WeatherDisplay:10.37,2013-02-07 04:02:00,
2013-02-06 22:07:00,24.4,21.4,28.99,SE,135,4.6,4.6,88,0.00,CLR,,0.00,WeatherDisplay:10.37,2013-02-07 04:07:00,
2013-02-06 22:12:00,24.4,21.4,28.99,East,90,5.8,5.8,88,0.00,CLR,,0.00,WeatherDisplay:10.37,2013-02-07 04:12:00,
2013-02-06 22:17:00,24.4,21.4,28.99,SE,135,5.8,5.8,88,0.00,CLR,,0.00,WeatherDisplay:10.37,2013-02-07 04:17:00,
2013-02-06 22:22:00,24.4,21.4,28.99,SE,135,5.8,5.8,88,0.00,CLR,,0.00,WeatherDisplay:10.37,2013-02-07 04:22:00,
2013-02-06 22:27:00,24.4,21.4,28.98,SE,135,4.6,4.6,88,0.00,CLR,,0.00,WeatherDisplay:10.37,2013-02-07 04:27:00,
2013-02-06 22:32:00,24.4,21.4,28.98,SE,135,3.5,3.5,88,0.00,CLR,,0.00,WeatherDisplay:10.37,2013-02-07 04:32:00,
2013-02-06 22:37:00,24.4,21.4,28.98,SE,135,3.5,3.5,88,0.00,CLR,,0.00,WeatherDisplay:10.37,2013-02-07 04:37:00,
2013-02-06 22:42:00,24.4,21.4,28.98,SE,135,4.6,4.6,88,0.00,CLR,,0.00,WeatherDisplay:10.37,2013-02-07 04:42:00,
2013-02-06 22:47:00,24.4,21.1,28.98,SE,135,6.9,6.9,87,0.00,CLR,,0.00,WeatherDisplay:10.37,2013-02-07 04:47:00,
2013-02-06 22:52:00,24.4,21.1,28.98,SSE,158,5.8,5.8,87,0.00,CLR,,0.00,WeatherDisplay:10.37,2013-02-07 04:52:00,
2013-02-06 22:57:00,24.4,21.1,28.98,East,90,5.8,5.8,87,0.00,CLR,,0.00,WeatherDisplay:10.37,2013-02-07 04:57:00,
2013-02-06 23:00:00,24.4,21.1,28.98,SSE,158,8.1,8.1,87,0.00,CLR,,0.00,WeatherDisplay:10.37,2013-02-07 05:00:00,
2013-02-06 23:05:00,24.4,21.1,28.99,SSE,158,6.9,6.9,87,0.00,CLR,,0.00,WeatherDisplay:10.37,2013-02-07 05:05:00,
2013-02-06 23:10:00,24.4,21.1,28.98,ESE,112,4.6,4.6,87,0.00,CLR,,0.00,WeatherDisplay:10.37,2013-02-07 05:10:00,
2013-02-06 23:15:00,24.4,21.4,28.99,SE,135,5.8,5.8,88,0.00,CLR,,0.00,WeatherDisplay:10.37,2013-02-07 05:15:00,
2013-02-06 23:20:00,24.4,21.4,28.99,SE,135,3.5,3.5,88,0.00,CLR,,0.00,WeatherDisplay:10.37,2013-02-07 05:20:00,
2013-02-06 23:25:00,24.4,21.4,28.99,SE,135,3.5,3.5,88,0.00,CLR,,0.00,WeatherDisplay:10.37,2013-02-07 05:25:00,
2013-02-06 23:30:00,24.6,21.6,28.98,SE,135,4.6,4.6,88,0.00,CLR,,0.00,WeatherDisplay:10.37,2013-02-07 05:30:00,
2013-02-06 23:35:00,24.6,21.6,28.98,SE,135,3.5,3.5,88,0.00,CLR,,0.00,WeatherDisplay:10.37,2013-02-07 05:35:00,
2013-02-06 23:40:00,24.6,21.6,28.99,SE,135,4.6,4.6,88,0.00,CLR,,0.00,WeatherDisplay:10.37,2013-02-07 05:40:00,
2013-02-06 23:45:00,24.6,21.6,28.99,SE,135,3.5,3.5,88,0.00,CLR,,0.00,WeatherDisplay:10.37,2013-02-07 05:45:00,
2013-02-06 23:50:00,24.6,21.6,28.99,East,90,1.1,1.1,88,0.00,CLR,,0.00,WeatherDisplay:10.37,2013-02-07 05:50:00,
2013-02-06 23:55:00,24.6,21.6,28.99,SE,135,3.5,3.5,88,0.00,CLR,,0.00,WeatherDisplay:10.37,2013-02-07 05:55:00,